Time;durP1;ratioP1;P1;durP2;ratioP2;P2;SDS_P1;SDS_P2;PMS_P1;PMS_P2;Temp;Humidity;BMP_temperature;BMP_pressure;BME280_temperature;BME280_humidity;BME280_pressure;Samples;Min_cycle;Max_cycle;Signal;HPM_P1;HPM_P2
2023/11/10 00:00:09;;;;;;;;;;;5.90;99.90;;;;;;5025774;28;19983;-68
2023/11/10 00:02:36;;;;;;;;;;;5.80;99.90;;;;;;5025601;28;19917;-69
2023/11/10 00:05:01;;;;;;;;;;;5.70;99.90;;;;;;5029241;28;19944;-69
2023/11/10 00:07:27;;;;;;;;;;;5.60;99.90;;;;;;5027375;28;19952;-71
2023/11/10 00:09:52;;;;;;;;;;;5.60;99.90;;;;;;5033137;28;19977;-71
2023/11/10 00:12:18;;;;;;;;;;;5.50;99.90;;;;;;5046057;28;20380;-72
2023/11/10 00:14:46;;;;;;;;;;;5.40;99.90;;;;;;5045492;28;19998;-71
2023/11/10 00:17:12;;;;;;;;;;;5.40;99.90;;;;;;5043762;28;19919;-71
2023/11/10 00:19:46;;;;;;;;;;;5.40;99.90;;;;;;5044250;28;19909;-71
2023/11/10 00:22:12;;;;;;;;;;;5.40;99.90;;;;;;5048477;28;19944;-69
2023/11/10 00:24:39;;;;;;;;;;;5.40;99.90;;;;;;5049302;28;19928;-70
2023/11/10 00:27:09;;;;;;;;;;;5.50;99.90;;;;;;5045538;28;19909;-72
2023/11/10 00:29:44;;;;;;;;;;;5.50;99.90;;;;;;5044553;28;19909;-71
2023/11/10 00:32:11;;;;;;;;;;;5.50;99.90;;;;;;5045803;28;19925;-71
2023/11/10 00:34:37;;;;;;;;;;;5.50;99.90;;;;;;5047771;28;19920;-70
2023/11/10 00:37:03;;;;;;;;;;;5.40;99.90;;;;;;5049828;28;19909;-70
2023/11/10 00:39:29;;;;;;;;;;;5.40;99.90;;;;;;5043025;28;19905;-70
2023/11/10 00:41:55;;;;;;;;;;;5.50;99.90;;;;;;5045119;28;19917;-72
2023/11/10 00:44:22;;;;;;;;;;;5.40;99.90;;;;;;5047488;28;20426;-71
2023/11/10 00:46:48;;;;;;;;;;;5.40;99.90;;;;;;5041930;28;20004;-70
2023/11/10 00:49:14;;;;;;;;;;;5.40;99.90;;;;;;5049283;28;19917;-68
2023/11/10 00:51:40;;;;;;;;;;;5.30;99.90;;;;;;5026506;28;19912;-67
2023/11/10 00:54:05;;;;;;;;;;;5.30;99.90;;;;;;5022485;28;20004;-68
2023/11/10 00:56:31;;;;;;;;;;;5.20;99.90;;;;;;5023330;28;19912;-69
2023/11/10 00:58:58;;;;;;;;;;;5.20;99.90;;;;;;5031708;28;20370;-68
2023/11/10 01:01:24;;;;;;;;;;;5.20;99.90;;;;;;5021878;28;19913;-69
2023/11/10 01:03:49;;;;;;;;;;;5.20;99.90;;;;;;5025839;28;19924;-68
2023/11/10 01:06:15;;;;;;;;;;;5.20;99.90;;;;;;5027410;28;19952;-69
2023/11/10 01:08:41;;;;;;;;;;;5.30;99.90;;;;;;5027652;28;19999;-70
2023/11/10 01:11:07;;;;;;;;;;;5.30;99.90;;;;;;5044689;28;20005;-70
2023/11/10 01:13:34;;;;;;;;;;;5.40;99.90;;;;;;5027433;28;19968;-71
2023/11/10 01:16:00;;;;;;;;;;;5.40;99.90;;;;;;5029585;28;19927;-69
2023/11/10 01:18:26;;;;;;;;;;;5.50;99.90;;;;;;5030719;28;20329;-71
2023/11/10 01:20:53;;;;;;;;;;;5.50;99.90;;;;;;5029776;28;19966;-69
2023/11/10 01:23:18;;;;;;;;;;;5.50;99.90;;;;;;5031394;28;19916;-67
2023/11/10 01:25:44;;;;;;;;;;;5.50;99.90;;;;;;5029434;28;20350;-68
2023/11/10 01:28:09;;;;;;;;;;;5.50;99.90;;;;;;5028525;28;19913;-69
2023/11/10 01:30:35;;;;;;;;;;;5.60;99.90;;;;;;5042695;28;19912;-68
2023/11/10 01:33:00;;;;;;;;;;;5.60;99.90;;;;;;5032601;28;19913;-68
2023/11/10 01:35:26;;;;;;;;;;;5.50;99.90;;;;;;5034527;28;19920;-69
2023/11/10 01:37:51;;;;;;;;;;;5.60;99.90;;;;;;5027584;28;19908;-69
2023/11/10 01:40:19;;;;;;;;;;;5.60;99.90;;;;;;5027346;28;19920;-69
2023/11/10 01:42:44;;;;;;;;;;;5.80;99.90;;;;;;5024903;28;19912;-68
2023/11/10 01:45:10;;;;;;;;;;;5.80;99.90;;;;;;5032767;28;19925;-68
2023/11/10 01:47:39;;;;;;;;;;;6.00;99.90;;;;;;5045160;28;20500;-68
2023/11/10 01:50:05;;;;;;;;;;;6.00;99.90;;;;;;5028534;28;20011;-69
2023/11/10 01:52:31;;;;;;;;;;;6.00;99.90;;;;;;5025535;28;19913;-69
2023/11/10 01:54:57;;;;;;;;;;;6.00;99.90;;;;;;5042478;28;19913;-70
2023/11/10 01:57:23;;;;;;;;;;;6.00;99.90;;;;;;5034835;28;19924;-72
2023/11/10 01:59:50;;;;;;;;;;;6.00;99.90;;;;;;5029091;28;19913;-68
2023/11/10 02:02:16;;;;;;;;;;;6.10;99.90;;;;;;5029976;28;20301;-68
2023/11/10 02:04:42;;;;;;;;;;;6.10;99.90;;;;;;5026974;28;19909;-69
2023/11/10 02:07:07;;;;;;;;;;;6.10;99.90;;;;;;5033629;28;19909;-68
2023/11/10 02:09:33;;;;;;;;;;;6.10;99.90;;;;;;5023329;28;20309;-69
2023/11/10 02:11:58;;;;;;;;;;;6.10;99.90;;;;;;5028679;28;20067;-69
2023/11/10 02:14:24;;;;;;;;;;;6.10;99.90;;;;;;5027489;28;20362;-68
2023/11/10 02:16:49;;;;;;;;;;;6.10;99.90;;;;;;5024155;28;20026;-68
2023/11/10 02:19:15;;;;;;;;;;;6.10;99.90;;;;;;5026023;28;19916;-69
2023/11/10 02:21:41;;;;;;;;;;;6.10;99.90;;;;;;5023891;28;19959;-70
2023/11/10 02:24:07;;;;;;;;;;;6.10;99.90;;;;;;5027736;28;20000;-69
2023/11/10 02:26:33;;;;;;;;;;;6.10;99.90;;;;;;5030342;28;19917;-69
2023/11/10 02:28:59;;;;;;;;;;;6.10;99.90;;;;;;5029306;28;19909;-67
2023/11/10 02:31:25;;;;;;;;;;;6.20;99.90;;;;;;5026593;28;19917;-68
2023/11/10 02:33:51;;;;;;;;;;;6.10;99.90;;;;;;5036417;28;19928;-70
2023/11/10 02:36:17;;;;;;;;;;;6.10;99.90;;;;;;5026911;28;19955;-69
2023/11/10 02:38:42;;;;;;;;;;;6.10;99.90;;;;;;5026282;28;19960;-68
2023/11/10 02:41:09;;;;;;;;;;;6.10;99.90;;;;;;5022359;28;19917;-69
2023/11/10 02:43:35;;;;;;;;;;;6.00;99.90;;;;;;5024368;28;19908;-66
2023/11/10 02:46:01;;;;;;;;;;;6.00;99.90;;;;;;5041326;28;19924;-69
2023/11/10 02:48:26;;;;;;;;;;;6.00;99.90;;;;;;5023825;28;20298;-69
2023/11/10 02:50:52;;;;;;;;;;;6.00;99.90;;;;;;5027152;28;20358;-68
2023/11/10 02:53:18;;;;;;;;;;;6.00;99.90;;;;;;5029725;28;19971;-69
2023/11/10 02:55:44;;;;;;;;;;;6.10;99.90;;;;;;5023726;28;20493;-69
2023/11/10 02:58:09;;;;;;;;;;;6.00;99.90;;;;;;5028696;28;19950;-68
2023/11/10 03:00:35;;;;;;;;;;;6.00;99.90;;;;;;5024036;28;19917;-68
2023/11/10 03:03:00;;;;;;;;;;;6.00;99.90;;;;;;5032563;28;19919;-68
2023/11/10 03:05:26;;;;;;;;;;;5.90;99.90;;;;;;5027000;28;19955;-69
2023/11/10 03:07:52;;;;;;;;;;;5.90;99.90;;;;;;5026464;28;19920;-68
2023/11/10 03:10:18;;;;;;;;;;;5.90;99.90;;;;;;5023700;28;19952;-68
2023/11/10 03:12:44;;;;;;;;;;;5.90;99.90;;;;;;5026013;28;20374;-68
2023/11/10 03:15:10;;;;;;;;;;;5.90;99.90;;;;;;5028232;28;19921;-68
2023/11/10 03:17:36;;;;;;;;;;;5.90;99.90;;;;;;5025315;28;20003;-68
2023/11/10 03:20:02;;;;;;;;;;;6.00;99.90;;;;;;5027500;28;19917;-68
2023/11/10 03:22:28;;;;;;;;;;;6.00;99.90;;;;;;5025392;28;20500;-69
2023/11/10 03:24:54;;;;;;;;;;;6.00;99.90;;;;;;5022855;28;19948;-68
2023/11/10 03:27:20;;;;;;;;;;;6.00;99.90;;;;;;5028343;28;20010;-67
2023/11/10 03:29:46;;;;;;;;;;;6.00;99.90;;;;;;5024564;28;20797;-68
2023/11/10 03:32:11;;;;;;;;;;;6.00;99.90;;;;;;5026124;28;20263;-68
2023/11/10 03:34:41;;;;;;;;;;;6.00;99.90;;;;;;5030295;28;19917;-69
2023/11/10 03:37:10;;;;;;;;;;;6.00;99.90;;;;;;5024556;28;19917;-69
2023/11/10 03:39:36;;;;;;;;;;;5.90;99.90;;;;;;5028692;28;19916;-69
2023/11/10 03:42:02;;;;;;;;;;;5.90;99.90;;;;;;5019929;28;19918;-68
2023/11/10 03:44:28;;;;;;;;;;;5.80;99.90;;;;;;5025801;28;20424;-69
2023/11/10 03:46:53;;;;;;;;;;;5.80;99.90;;;;;;5027762;28;20000;-67
2023/11/10 03:49:19;;;;;;;;;;;5.80;99.90;;;;;;5028315;28;19995;-69
2023/11/10 03:51:46;;;;;;;;;;;5.80;99.90;;;;;;5024759;28;19921;-69
2023/11/10 03:54:12;;;;;;;;;;;5.90;99.90;;;;;;5030726;28;19916;-69
2023/11/10 03:56:39;;;;;;;;;;;5.90;99.90;;;;;;5038033;28;19915;-69
2023/11/10 03:59:09;;;;;;;;;;;5.90;99.90;;;;;;5037985;28;19917;-69
2023/11/10 04:01:35;;;;;;;;;;;5.90;99.90;;;;;;5024878;28;20281;-69
2023/11/10 04:04:01;;;;;;;;;;;5.90;99.90;;;;;;5025173;28;20007;-70
2023/11/10 04:06:26;;;;;;;;;;;5.90;99.90;;;;;;5021771;28;19988;-69
2023/11/10 04:08:52;;;;;;;;;;;5.80;99.90;;;;;;5023609;28;20009;-69
2023/11/10 04:11:17;;;;;;;;;;;5.70;99.90;;;;;;5025953;28;20204;-68
2023/11/10 04:13:44;;;;;;;;;;;5.70;99.90;;;;;;5023237;28;19960;-69
2023/11/10 04:16:16;;;;;;;;;;;5.70;99.90;;;;;;5021666;28;19913;-68
2023/11/10 04:18:42;;;;;;;;;;;5.70;99.90;;;;;;5024528;28;19917;-69
2023/11/10 04:21:08;;;;;;;;;;;5.60;99.90;;;;;;5023519;28;19916;-69
2023/11/10 04:23:33;;;;;;;;;;;5.60;99.90;;;;;;5020913;28;20305;-69
2023/11/10 04:26:05;;;;;;;;;;;5.60;99.90;;;;;;5019757;28;19909;-69
2023/11/10 04:28:31;;;;;;;;;;;5.60;99.90;;;;;;5025742;28;19913;-68
2023/11/10 04:30:57;;;;;;;;;;;5.60;99.90;;;;;;5020302;28;19917;-69
2023/11/10 04:33:22;;;;;;;;;;;5.60;99.90;;;;;;5033176;28;20389;-69
2023/11/10 04:35:48;;;;;;;;;;;5.60;99.90;;;;;;5026441;28;20052;-69
2023/11/10 04:38:13;;;;;;;;;;;5.50;99.90;;;;;;5024516;28;19995;-69
2023/11/10 04:40:40;;;;;;;;;;;5.50;99.90;;;;;;5021686;28;19940;-69
2023/11/10 04:43:05;;;;;;;;;;;5.50;99.90;;;;;;5023570;28;19913;-69
2023/11/10 04:45:31;;;;;;;;;;;5.40;99.90;;;;;;5021263;28;20279;-69
2023/11/10 04:47:57;;;;;;;;;;;5.50;99.90;;;;;;5027839;28;19963;-69
2023/11/10 04:50:22;;;;;;;;;;;5.40;99.90;;;;;;5030553;28;19913;-70
2023/11/10 04:52:48;;;;;;;;;;;5.40;99.90;;;;;;5029945;28;19920;-69
2023/11/10 04:55:14;;;;;;;;;;;5.40;99.90;;;;;;5027497;28;20444;-69
2023/11/10 04:57:39;;;;;;;;;;;5.50;99.90;;;;;;5040544;28;19932;-69
2023/11/10 05:00:08;;;;;;;;;;;5.50;99.90;;;;;;5029761;28;19959;-69
2023/11/10 05:02:33;;;;;;;;;;;5.60;99.90;;;;;;5024348;28;20333;-69
2023/11/10 05:05:02;;;;;;;;;;;5.50;99.90;;;;;;5023248;28;19924;-69
2023/11/10 05:07:28;;;;;;;;;;;5.60;99.90;;;;;;5031583;28;19909;-69
2023/11/10 05:09:54;;;;;;;;;;;5.60;99.90;;;;;;5026822;28;19913;-68
2023/11/10 05:12:20;;;;;;;;;;;5.60;99.90;;;;;;5029003;28;19913;-68
2023/11/10 05:14:45;;;;;;;;;;;5.60;99.90;;;;;;5023246;28;19927;-69
2023/11/10 05:17:11;;;;;;;;;;;5.60;99.90;;;;;;5025518;28;19917;-68
2023/11/10 05:19:37;;;;;;;;;;;5.60;99.90;;;;;;5026466;28;19935;-70
2023/11/10 05:22:02;;;;;;;;;;;5.60;99.90;;;;;;5028951;28;20373;-70
2023/11/10 05:24:29;;;;;;;;;;;5.60;99.90;;;;;;5029913;28;20393;-69
2023/11/10 05:26:55;;;;;;;;;;;5.60;99.90;;;;;;5026381;28;20424;-68
2023/11/10 05:29:21;;;;;;;;;;;5.60;99.90;;;;;;5028024;28;19944;-68
2023/11/10 05:31:47;;;;;;;;;;;5.60;99.90;;;;;;5028253;28;20323;-69
2023/11/10 05:34:12;;;;;;;;;;;5.60;99.90;;;;;;5026734;28;19913;-68
2023/11/10 05:36:38;;;;;;;;;;;5.60;99.90;;;;;;5026546;28;19948;-70
2023/11/10 05:39:04;;;;;;;;;;;5.60;99.90;;;;;;5028960;28;19916;-69
2023/11/10 05:41:32;;;;;;;;;;;5.70;99.90;;;;;;5027859;28;19942;-68
2023/11/10 05:43:58;;;;;;;;;;;5.60;99.90;;;;;;5030185;28;19909;-70
2023/11/10 05:46:24;;;;;;;;;;;5.70;99.90;;;;;;5027159;28;20413;-69
2023/11/10 05:48:49;;;;;;;;;;;5.70;99.90;;;;;;5025369;28;19935;-69
2023/11/10 05:51:15;;;;;;;;;;;5.80;99.90;;;;;;5026877;28;19959;-69
2023/11/10 05:53:41;;;;;;;;;;;5.90;99.90;;;;;;5024917;28;19929;-70
2023/11/10 05:56:07;;;;;;;;;;;6.00;99.90;;;;;;5026217;28;19913;-69
2023/11/10 05:58:33;;;;;;;;;;;6.10;99.90;;;;;;5028898;28;19909;-69
2023/11/10 06:00:59;;;;;;;;;;;6.20;99.90;;;;;;5026741;28;19923;-70
2023/11/10 06:03:27;;;;;;;;;;;6.30;99.90;;;;;;5027030;28;19919;-69
2023/11/10 06:05:55;;;;;;;;;;;6.30;99.90;;;;;;5024530;28;19917;-69
2023/11/10 06:08:21;;;;;;;;;;;6.30;99.90;;;;;;5026776;28;20344;-68
2023/11/10 06:10:52;;;;;;;;;;;6.30;99.90;;;;;;5029136;28;19908;-69
2023/11/10 06:13:21;;;;;;;;;;;6.40;99.90;;;;;;5051234;28;19923;-69
2023/11/10 06:15:47;;;;;;;;;;;6.50;99.90;;;;;;5044097;28;19992;-69
2023/11/10 06:18:12;;;;;;;;;;;6.50;99.90;;;;;;5034951;28;20373;-69
2023/11/10 06:20:38;;;;;;;;;;;6.50;99.90;;;;;;5035652;28;19908;-69
2023/11/10 06:23:04;;;;;;;;;;;6.50;99.90;;;;;;5030910;28;19919;-68
2023/11/10 06:25:29;;;;;;;;;;;6.60;99.90;;;;;;5029449;28;20565;-70
2023/11/10 06:27:55;;;;;;;;;;;6.60;99.90;;;;;;5029723;28;19951;-70
2023/11/10 06:30:21;;;;;;;;;;;6.50;99.90;;;;;;5029579;28;19955;-69
2023/11/10 06:32:46;;;;;;;;;;;6.60;99.90;;;;;;5023772;28;19943;-69
2023/11/10 06:35:12;;;;;;;;;;;6.60;99.90;;;;;;5028673;28;19931;-69
2023/11/10 06:37:38;;;;;;;;;;;6.60;99.90;;;;;;5027450;28;19917;-70
2023/11/10 06:40:03;;;;;;;;;;;6.70;99.90;;;;;;5024990;28;19917;-70
2023/11/10 06:42:33;;;;;;;;;;;6.70;99.90;;;;;;5021988;28;20836;-71
2023/11/10 06:45:00;;;;;;;;;;;6.60;99.90;;;;;;5023356;28;19921;-70
2023/11/10 06:47:25;;;;;;;;;;;6.60;99.90;;;;;;5025486;28;19912;-70
2023/11/10 06:49:51;;;;;;;;;;;6.70;99.90;;;;;;5026171;28;20436;-70
2023/11/10 06:52:17;;;;;;;;;;;6.60;99.90;;;;;;5027167;28;19938;-70
2023/11/10 06:54:43;;;;;;;;;;;6.70;99.90;;;;;;5021149;28;19928;-70
2023/11/10 06:57:11;;;;;;;;;;;6.70;99.90;;;;;;5024219;28;19909;-69
2023/11/10 06:59:38;;;;;;;;;;;6.60;99.90;;;;;;5032566;28;19974;-72
2023/11/10 07:02:04;;;;;;;;;;;6.60;99.90;;;;;;5035623;28;19913;-69
2023/11/10 07:04:30;;;;;;;;;;;6.70;99.90;;;;;;5029864;28;19912;-71
2023/11/10 07:06:55;;;;;;;;;;;6.70;99.90;;;;;;5031499;28;19909;-73
2023/11/10 07:09:21;;;;;;;;;;;6.70;99.90;;;;;;5032691;28;20006;-72
2023/11/10 07:11:48;;;;;;;;;;;6.70;99.90;;;;;;5028435;28;19909;-71
2023/11/10 07:14:14;;;;;;;;;;;6.70;99.90;;;;;;5029731;28;20301;-70
2023/11/10 07:16:39;;;;;;;;;;;6.80;99.90;;;;;;5028159;28;19917;-71
2023/11/10 07:19:05;;;;;;;;;;;6.80;99.90;;;;;;5029352;28;20381;-72
2023/11/10 07:21:31;;;;;;;;;;;6.80;99.90;;;;;;5027292;28;20354;-71
2023/11/10 07:23:56;;;;;;;;;;;6.80;99.90;;;;;;5023217;28;19977;-72
2023/11/10 07:26:22;;;;;;;;;;;6.80;99.90;;;;;;5025434;28;19935;-71
2023/11/10 07:28:48;;;;;;;;;;;6.80;99.90;;;;;;5025827;28;19913;-72
2023/11/10 07:31:14;;;;;;;;;;;6.80;99.90;;;;;;5026405;28;20724;-71
2023/11/10 07:33:39;;;;;;;;;;;6.80;99.90;;;;;;5027773;28;20008;-72
2023/11/10 07:36:05;;;;;;;;;;;6.80;99.90;;;;;;5022007;28;19919;-72
2023/11/10 07:38:31;;;;;;;;;;;6.80;99.90;;;;;;5021864;28;19964;-72
2023/11/10 07:40:57;;;;;;;;;;;6.80;99.90;;;;;;5040262;28;19909;-72
2023/11/10 07:43:22;;;;;;;;;;;6.80;99.90;;;;;;5028055;28;19913;-72
2023/11/10 07:45:48;;;;;;;;;;;6.80;99.90;;;;;;5019606;28;19924;-72
2023/11/10 07:48:13;;;;;;;;;;;6.80;99.90;;;;;;5023795;28;19981;-71
2023/11/10 07:50:39;;;;;;;;;;;6.80;99.90;;;;;;5029096;28;19913;-71
2023/11/10 07:53:05;;;;;;;;;;;6.80;99.90;;;;;;5024291;28;19908;-72
2023/11/10 07:55:31;;;;;;;;;;;6.80;99.90;;;;;;5027340;28;19935;-72
2023/11/10 07:57:57;;;;;;;;;;;6.80;99.90;;;;;;5029345;28;19909;-72
2023/11/10 08:00:22;;;;;;;;;;;6.70;99.90;;;;;;5029665;28;19939;-71
2023/11/10 08:02:53;;;;;;;;;;;6.80;99.90;;;;;;5029168;28;20009;-71
2023/11/10 08:05:20;;;;;;;;;;;6.80;99.90;;;;;;5028455;28;20274;-71
2023/11/10 08:07:46;;;;;;;;;;;6.80;99.90;;;;;;5022397;28;20390;-72
2023/11/10 08:10:13;;;;;;;;;;;6.70;99.90;;;;;;5042991;28;19952;-72
2023/11/10 08:12:39;;;;;;;;;;;6.80;99.90;;;;;;5025354;28;20251;-72
2023/11/10 08:15:05;;;;;;;;;;;6.80;99.90;;;;;;5025007;28;19983;-71
2023/11/10 08:17:30;;;;;;;;;;;6.80;99.90;;;;;;5029076;28;19917;-71
2023/11/10 08:19:57;;;;;;;;;;;6.80;99.90;;;;;;5030577;28;20277;-73
2023/11/10 08:22:22;;;;;;;;;;;6.80;99.90;;;;;;5033736;28;19913;-72
2023/11/10 08:24:48;;;;;;;;;;;6.90;99.90;;;;;;5031413;28;19939;-72
2023/11/10 08:27:14;;;;;;;;;;;6.90;99.90;;;;;;5036836;28;20020;-72
2023/11/10 08:29:39;;;;;;;;;;;6.90;99.90;;;;;;5046029;28;19936;-73
2023/11/10 08:32:05;;;;;;;;;;;6.90;99.90;;;;;;5029330;28;19917;-72
2023/11/10 08:34:34;;;;;;;;;;;6.90;99.90;;;;;;5027426;28;19914;-71
2023/11/10 08:36:59;;;;;;;;;;;6.90;99.90;;;;;;5032582;28;19916;-71
2023/11/10 08:39:25;;;;;;;;;;;7.00;99.90;;;;;;5029592;28;19909;-72
2023/11/10 08:41:51;;;;;;;;;;;7.00;99.90;;;;;;5028509;28;20455;-72
2023/11/10 08:44:18;;;;;;;;;;;7.00;99.90;;;;;;5029899;28;19916;-71
2023/11/10 08:46:44;;;;;;;;;;;7.00;99.90;;;;;;5029454;28;19991;-71
2023/11/10 08:49:11;;;;;;;;;;;7.00;99.90;;;;;;5031340;28;20839;-70
2023/11/10 08:51:37;;;;;;;;;;;7.10;99.90;;;;;;5029430;28;19910;-70
2023/11/10 08:54:03;;;;;;;;;;;7.00;99.90;;;;;;5023721;28;19923;-71
2023/11/10 08:56:29;;;;;;;;;;;7.00;99.90;;;;;;5024758;28;19909;-72
2023/11/10 08:58:54;;;;;;;;;;;7.10;99.90;;;;;;5028155;28;20446;-72
2023/11/10 09:01:20;;;;;;;;;;;7.10;99.90;;;;;;5033207;28;19921;-72
2023/11/10 09:03:46;;;;;;;;;;;7.10;99.90;;;;;;5043407;28;19909;-73
2023/11/10 09:06:11;;;;;;;;;;;7.10;99.90;;;;;;5041991;28;19913;-69
2023/11/10 09:08:37;;;;;;;;;;;7.10;99.90;;;;;;5039021;28;20008;-71
2023/11/10 09:11:02;;;;;;;;;;;7.10;99.90;;;;;;5040207;28;19917;-72
2023/11/10 09:13:28;;;;;;;;;;;7.10;99.90;;;;;;5035020;28;19912;-71
2023/11/10 09:15:54;;;;;;;;;;;7.10;99.90;;;;;;5051342;28;19935;-72
2023/11/10 09:18:19;;;;;;;;;;;7.10;99.90;;;;;;5043218;28;19909;-72
2023/11/10 09:20:47;;;;;;;;;;;7.10;99.90;;;;;;5038280;28;19980;-72
2023/11/10 09:23:13;;;;;;;;;;;7.30;99.90;;;;;;5028094;28;19972;-72
2023/11/10 09:25:39;;;;;;;;;;;7.40;99.90;;;;;;5031077;28;19912;-76
2023/11/10 09:28:05;;;;;;;;;;;7.50;99.90;;;;;;5036034;28;19909;-72
2023/11/10 09:30:36;;;;;;;;;;;7.60;99.90;;;;;;5033183;28;19917;-71
2023/11/10 09:33:02;;;;;;;;;;;7.70;99.90;;;;;;5021411;28;19917;-71
2023/11/10 09:35:28;;;;;;;;;;;7.90;99.90;;;;;;5026705;28;20027;-72
2023/11/10 09:37:56;;;;;;;;;;;8.10;99.90;;;;;;5027905;28;19913;-73
2023/11/10 09:40:23;;;;;;;;;;;8.20;99.90;;;;;;5038708;28;19913;-73
2023/11/10 09:42:49;;;;;;;;;;;8.20;99.90;;;;;;5048751;28;19977;-72
2023/11/10 09:45:15;;;;;;;;;;;8.30;99.90;;;;;;5049436;28;19905;-73
2023/11/10 09:47:41;;;;;;;;;;;8.40;99.90;;;;;;5048458;28;19920;-74
2023/11/10 09:50:08;;;;;;;;;;;8.50;99.90;;;;;;5052410;28;19898;-72
2023/11/10 09:52:35;;;;;;;;;;;8.50;99.90;;;;;;5050935;28;19905;-72
2023/11/10 09:55:01;;;;;;;;;;;8.50;99.90;;;;;;5046221;28;20108;-73
2023/11/10 09:57:30;;;;;;;;;;;8.50;99.90;;;;;;5053280;28;19921;-74
2023/11/10 09:59:56;;;;;;;;;;;8.60;99.90;;;;;;5050862;28;19959;-77
2023/11/10 10:02:25;;;;;;;;;;;8.50;99.90;;;;;;5049315;28;20034;-74
2023/11/10 10:04:53;;;;;;;;;;;8.40;99.90;;;;;;5048801;28;19917;-72
2023/11/10 10:07:19;;;;;;;;;;;8.30;99.90;;;;;;5048101;28;19913;-72
2023/11/10 10:09:45;;;;;;;;;;;8.30;99.90;;;;;;5068136;28;19920;-74
2023/11/10 10:12:12;;;;;;;;;;;8.30;99.90;;;;;;5033175;28;19924;-70
2023/11/10 10:14:38;;;;;;;;;;;8.30;99.90;;;;;;5034340;28;20297;-71
2023/11/10 10:17:03;;;;;;;;;;;8.40;99.90;;;;;;5032291;28;19932;-71
2023/11/10 10:19:32;;;;;;;;;;;8.30;99.90;;;;;;5035979;28;19909;-70
2023/11/10 10:22:01;;;;;;;;;;;8.30;99.90;;;;;;5025845;28;20343;-70
2023/11/10 10:24:27;;;;;;;;;;;8.30;99.90;;;;;;5033144;28;19915;-71
2023/11/10 10:26:52;;;;;;;;;;;8.40;99.90;;;;;;5033431;28;19909;-70
2023/11/10 10:29:18;;;;;;;;;;;8.40;99.90;;;;;;5033419;28;19909;-71
2023/11/10 10:31:46;;;;;;;;;;;8.40;99.90;;;;;;5027034;28;19913;-71
2023/11/10 10:34:12;;;;;;;;;;;8.30;99.90;;;;;;5034947;28;19920;-72
2023/11/10 10:36:38;;;;;;;;;;;8.30;99.90;;;;;;5030287;28;19981;-71
2023/11/10 10:39:11;;;;;;;;;;;8.40;99.90;;;;;;5032387;28;20330;-73
2023/11/10 10:41:40;;;;;;;;;;;8.50;99.90;;;;;;5028758;28;19909;-71
2023/11/10 10:44:08;;;;;;;;;;;8.50;99.90;;;;;;5030757;28;20425;-74
2023/11/10 10:46:34;;;;;;;;;;;8.50;99.90;;;;;;5044288;28;19932;-71
2023/11/10 10:49:01;;;;;;;;;;;8.50;99.90;;;;;;5034170;28;20085;-71
2023/11/10 10:51:47;;;;;;;;;;;8.50;99.90;;;;;;5037752;28;19917;-75
2023/11/10 10:54:14;;;;;;;;;;;8.50;99.90;;;;;;5030436;28;19932;-73
2023/11/10 10:56:40;;;;;;;;;;;8.50;99.90;;;;;;5037903;28;19936;-75
2023/11/10 10:59:06;;;;;;;;;;;8.50;99.90;;;;;;5037520;28;19909;-73
2023/11/10 11:01:36;;;;;;;;;;;8.50;99.90;;;;;;5034221;28;20386;-73
2023/11/10 11:04:17;;;;;;;;;;;8.60;99.90;;;;;;5024628;28;20037;-73
2023/11/10 11:07:01;;;;;;;;;;;8.60;99.90;;;;;;5054064;28;19909;-75
2023/11/10 11:09:27;;;;;;;;;;;8.50;99.90;;;;;;5033669;28;19959;-72
2023/11/10 11:11:53;;;;;;;;;;;8.50;99.90;;;;;;5037683;28;19913;-73
2023/11/10 11:14:22;;;;;;;;;;;8.50;99.90;;;;;;5054928;28;19951;-73
2023/11/10 11:16:52;;;;;;;;;;;8.50;99.90;;;;;;5035108;28;20366;-72
2023/11/10 11:19:29;;;;;;;;;;;8.50;99.90;;;;;;5035055;28;20320;-72
2023/11/10 11:21:55;;;;;;;;;;;8.50;99.90;;;;;;5031075;28;20396;-73
2023/11/10 11:24:24;;;;;;;;;;;8.60;99.90;;;;;;5025961;28;19917;-72
2023/11/10 11:27:00;;;;;;;;;;;8.60;99.90;;;;;;5022668;28;19912;-71
2023/11/10 11:29:26;;;;;;;;;;;8.60;99.90;;;;;;5018843;28;19963;-72
2023/11/10 11:31:51;;;;;;;;;;;8.70;99.90;;;;;;5025472;28;19960;-72
2023/11/10 11:34:23;;;;;;;;;;;8.70;99.90;;;;;;5022753;28;20305;-71
2023/11/10 11:36:49;;;;;;;;;;;8.80;99.90;;;;;;5026251;28;20043;-72
2023/11/10 11:39:16;;;;;;;;;;;8.90;99.90;;;;;;5029454;28;19936;-72
2023/11/10 11:41:53;;;;;;;;;;;9.00;99.90;;;;;;5024131;28;19931;-72
2023/11/10 11:44:48;;;;;;;;;;;9.10;99.90;;;;;;5027640;28;20358;-72
2023/11/10 11:47:18;;;;;;;;;;;9.10;99.90;;;;;;5009809;28;19959;-71
2023/11/10 11:49:43;;;;;;;;;;;9.10;99.90;;;;;;5034766;28;19916;-72
2023/11/10 11:52:09;;;;;;;;;;;9.20;99.90;;;;;;5029325;28;19917;-72
2023/11/10 11:54:35;;;;;;;;;;;9.20;99.90;;;;;;5026585;28;20313;-73
2023/11/10 11:57:01;;;;;;;;;;;9.20;99.90;;;;;;5026114;28;19939;-73
2023/11/10 11:59:27;;;;;;;;;;;9.20;99.90;;;;;;5022021;28;19913;-72
2023/11/10 12:01:54;;;;;;;;;;;9.30;99.90;;;;;;5023505;28;20440;-72
2023/11/10 12:04:19;;;;;;;;;;;9.30;99.90;;;;;;5027520;28;19916;-71
2023/11/10 12:06:46;;;;;;;;;;;9.30;99.90;;;;;;5040455;28;19914;-71
2023/11/10 12:09:12;;;;;;;;;;;9.20;99.90;;;;;;5027069;28;20388;-72
2023/11/10 12:11:38;;;;;;;;;;;9.20;99.90;;;;;;5028332;28;19913;-73
2023/11/10 12:14:05;;;;;;;;;;;9.20;99.90;;;;;;5024959;28;19964;-73
2023/11/10 12:16:37;;;;;;;;;;;9.20;99.90;;;;;;5019949;28;19924;-73
2023/11/10 12:19:06;;;;;;;;;;;9.20;99.90;;;;;;5027405;28;20348;-73
2023/11/10 12:21:32;;;;;;;;;;;9.40;99.90;;;;;;5024717;28;19920;-71
2023/11/10 12:24:03;;;;;;;;;;;9.40;99.90;;;;;;5028342;28;19909;-71
2023/11/10 12:26:36;;;;;;;;;;;9.30;99.90;;;;;;5026775;28;19948;-70
2023/11/10 12:29:02;;;;;;;;;;;9.30;99.90;;;;;;5025477;28;19909;-73
2023/11/10 12:31:28;;;;;;;;;;;9.30;99.90;;;;;;5027753;28;19913;-72
2023/11/10 12:33:58;;;;;;;;;;;9.40;99.90;;;;;;5033356;28;19980;-71
2023/11/10 12:36:23;;;;;;;;;;;9.30;99.90;;;;;;5038264;28;19909;-72
2023/11/10 12:38:52;;;;;;;;;;;9.30;99.90;;;;;;5035890;28;20346;-75
2023/11/10 12:41:18;;;;;;;;;;;9.20;99.90;;;;;;5030713;28;19913;-71
2023/11/10 12:43:43;;;;;;;;;;;9.20;99.90;;;;;;5022550;28;19916;-71
2023/11/10 12:46:09;;;;;;;;;;;9.20;99.90;;;;;;5027895;28;19917;-70
2023/11/10 12:48:38;;;;;;;;;;;9.20;99.90;;;;;;5027493;28;19955;-70
2023/11/10 12:51:03;;;;;;;;;;;9.20;99.90;;;;;;5035139;28;19995;-71
2023/11/10 12:53:29;;;;;;;;;;;9.10;99.90;;;;;;5034391;28;19952;-73
2023/11/10 12:55:57;;;;;;;;;;;9.30;99.90;;;;;;5035601;28;19916;-72
2023/11/10 12:58:30;;;;;;;;;;;9.50;99.90;;;;;;5036181;28;19909;-71
2023/11/10 13:00:56;;;;;;;;;;;9.60;99.90;;;;;;5034492;28;20359;-70
2023/11/10 13:03:22;;;;;;;;;;;9.60;99.90;;;;;;5038203;28;20004;-70
2023/11/10 13:05:47;;;;;;;;;;;9.60;99.90;;;;;;5040376;28;19952;-71
2023/11/10 13:08:13;;;;;;;;;;;9.50;99.90;;;;;;5037102;28;19916;-71
2023/11/10 13:10:39;;;;;;;;;;;9.60;99.90;;;;;;5040822;28;19945;-70
2023/11/10 13:13:05;;;;;;;;;;;9.50;99.90;;;;;;5030808;28;19909;-70
2023/11/10 13:15:30;;;;;;;;;;;9.50;99.90;;;;;;5028580;28;19980;-70
2023/11/10 13:17:57;;;;;;;;;;;9.50;99.90;;;;;;5025210;28;19963;-73
2023/11/10 13:20:23;;;;;;;;;;;9.50;99.90;;;;;;5030339;28;20388;-70
2023/11/10 13:22:49;;;;;;;;;;;9.40;99.90;;;;;;5030102;28;19909;-70
2023/11/10 13:25:17;;;;;;;;;;;9.40;99.90;;;;;;5025379;28;19917;-71
2023/11/10 13:27:43;;;;;;;;;;;9.50;99.90;;;;;;5029054;28;19913;-75
2023/11/10 13:30:13;;;;;;;;;;;9.50;99.90;;;;;;5041093;28;19913;-72
2023/11/10 13:32:52;;;;;;;;;;;9.50;99.90;;;;;;5022493;28;20263;-70
2023/11/10 13:35:19;;;;;;;;;;;9.60;99.90;;;;;;5030178;28;19920;-71
2023/11/10 13:37:47;;;;;;;;;;;9.70;99.90;;;;;;5027194;28;19909;-72
2023/11/10 13:40:17;;;;;;;;;;;9.60;99.90;;;;;;5039164;28;20354;-71
2023/11/10 13:42:43;;;;;;;;;;;9.60;99.90;;;;;;5021919;28;19916;-71
2023/11/10 13:45:12;;;;;;;;;;;9.60;99.90;;;;;;5020628;28;20039;-71
2023/11/10 13:47:38;;;;;;;;;;;9.60;99.90;;;;;;5024176;28;20214;-71
2023/11/10 13:50:05;;;;;;;;;;;9.70;99.90;;;;;;5019119;28;20281;-70
2023/11/10 13:52:31;;;;;;;;;;;9.60;99.90;;;;;;5020878;28;19917;-71
2023/11/10 13:54:57;;;;;;;;;;;9.70;99.90;;;;;;5021116;28;20193;-70
2023/11/10 13:57:32;;;;;;;;;;;9.80;99.90;;;;;;5021054;28;19917;-71
2023/11/10 13:59:57;;;;;;;;;;;9.90;99.90;;;;;;5025799;28;19909;-74
2023/11/10 14:02:35;;;;;;;;;;;10.00;99.90;;;;;;5028919;28;19921;-72
2023/11/10 14:05:01;;;;;;;;;;;10.00;99.90;;;;;;5021647;28;21526;-72
2023/11/10 14:07:42;;;;;;;;;;;;;;;;;;;;;
2023/11/10 14:10:29;;;;;;;;;;;10.10;99.90;;;;;;5023204;28;19909;-72
2023/11/10 14:13:12;;;;;;;;;;;10.10;99.90;;;;;;4955045;28;19910;-71
2023/11/10 14:15:47;;;;;;;;;;;10.00;99.90;;;;;;5036564;28;19948;-74
2023/11/10 14:18:23;;;;;;;;;;;;;;;;;;;;;
2023/11/10 14:20:49;;;;;;;;;;;10.00;99.90;;;;;;5020265;28;20285;-71
2023/11/10 14:23:18;;;;;;;;;;;9.90;99.90;;;;;;5021320;28;19909;-72
2023/11/10 14:25:44;;;;;;;;;;;9.80;99.90;;;;;;5020010;28;19916;-74
2023/11/10 14:28:09;;;;;;;;;;;9.70;99.90;;;;;;5023020;28;19917;-70